createdAt,value
2017-11-09T00:00:22.735Z,19.30
2017-11-09T00:02:51.893Z,18.10
2017-11-09T00:05:26.341Z,16.10
2017-11-09T00:07:54.624Z,16.90
2017-11-09T00:10:23.977Z,16.53
2017-11-09T00:12:52.280Z,16.10
2017-11-09T00:15:20.552Z,16.07
2017-11-09T00:17:49.610Z,15.93
2017-11-09T00:20:17.893Z,17.27
2017-11-09T00:22:46.206Z,15.93
2017-11-09T00:25:14.503Z,15.15
2017-11-09T00:27:43.769Z,15.13
2017-11-09T00:30:12.066Z,16.80
2017-11-09T00:32:40.350Z,16.57
2017-11-09T00:35:08.642Z,14.82
2017-11-09T00:37:36.927Z,14.43
2017-11-09T00:40:05.211Z,14.63
2017-11-09T00:42:33.498Z,14.70
2017-11-09T00:45:02.679Z,14.18
2017-11-09T00:47:30.978Z,14.00
2017-11-09T00:49:59.501Z,13.30
2017-11-09T00:52:27.817Z,15.37
2017-11-09T00:54:56.100Z,14.10
2017-11-09T00:57:24.377Z,14.50
2017-11-09T00:59:52.662Z,14.87
2017-11-09T01:02:20.985Z,12.93
2017-11-09T01:04:49.274Z,13.97
2017-11-09T01:07:17.570Z,12.75
2017-11-09T01:09:45.857Z,12.82
2017-11-09T01:12:14.157Z,14.20
2017-11-09T01:14:43.225Z,14.50
2017-11-09T01:17:12.397Z,13.80
2017-11-09T01:19:41.446Z,13.73
2017-11-09T01:22:10.525Z,14.90
2017-11-09T01:24:38.827Z,13.97
2017-11-09T01:27:07.886Z,13.85
2017-11-09T01:29:36.150Z,14.70
2017-11-09T01:32:04.432Z,14.13
2017-11-09T01:34:32.716Z,14.67
2017-11-09T01:37:01.010Z,14.70
2017-11-09T01:39:30.074Z,14.53
2017-11-09T01:41:58.357Z,13.47
2017-11-09T01:44:27.416Z,15.53
2017-11-09T01:46:55.715Z,15.17
2017-11-09T01:49:24.021Z,14.70
2017-11-09T01:51:52.316Z,14.13
2017-11-09T01:54:20.618Z,14.23
2017-11-09T01:56:48.910Z,13.90
2017-11-09T01:59:17.206Z,14.30
2017-11-09T02:01:45.489Z,13.80
2017-11-09T02:04:13.790Z,11.97
2017-11-09T02:06:42.841Z,11.93
2017-11-09T02:09:11.143Z,12.45
2017-11-09T02:11:39.460Z,11.90
2017-11-09T02:14:07.752Z,12.80
2017-11-09T02:16:36.042Z,12.97
2017-11-09T02:19:04.354Z,14.20
2017-11-09T02:21:32.656Z,11.97
2017-11-09T02:24:00.976Z,12.57
2017-11-09T02:26:29.456Z,12.50
2017-11-09T02:28:57.780Z,11.77
2017-11-09T02:31:26.102Z,12.10
2017-11-09T02:33:54.388Z,12.13
2017-11-09T02:36:23.467Z,10.50
2017-11-09T02:38:51.745Z,12.80
2017-11-09T02:41:20.029Z,12.80
2017-11-09T02:43:48.313Z,12.93
2017-11-09T02:46:17.383Z,11.63
2017-11-09T02:48:45.677Z,12.40
2017-11-09T02:51:13.980Z,12.20
2017-11-09T02:53:42.745Z,12.30
2017-11-09T02:56:11.034Z,12.43
2017-11-09T02:58:39.326Z,12.30
2017-11-09T03:01:07.870Z,12.70
2017-11-09T03:03:36.158Z,14.00
2017-11-09T03:06:04.445Z,12.93
2017-11-09T03:08:32.738Z,12.10
2017-11-09T03:11:01.041Z,12.80
2017-11-09T03:13:29.330Z,12.40
2017-11-09T03:15:57.625Z,11.47
2017-11-09T03:18:25.937Z,13.48
2017-11-09T03:20:54.228Z,12.33
2017-11-09T03:23:22.561Z,12.80
2017-11-09T03:25:50.842Z,12.93
2017-11-09T03:28:19.970Z,12.57
2017-11-09T03:30:48.259Z,12.30
2017-11-09T03:33:17.308Z,11.12
2017-11-09T03:35:45.590Z,13.60
2017-11-09T03:38:13.887Z,12.10
2017-11-09T03:40:42.170Z,12.37
2017-11-09T03:43:10.461Z,11.73
2017-11-09T03:45:39.514Z,11.17
2017-11-09T03:48:07.804Z,14.00
2017-11-09T03:50:36.093Z,13.83
2017-11-09T03:53:04.385Z,12.80
2017-11-09T03:55:32.685Z,13.33
2017-11-09T03:58:00.977Z,13.33
2017-11-09T04:00:29.290Z,12.73
2017-11-09T04:02:57.599Z,13.20
2017-11-09T04:05:25.889Z,13.70
2017-11-09T04:07:54.174Z,13.40
2017-11-09T04:10:22.525Z,13.43
2017-11-09T04:12:50.806Z,13.50
2017-11-09T04:15:19.144Z,13.98
2017-11-09T04:17:47.425Z,12.33
2017-11-09T04:20:15.719Z,12.50
2017-11-09T04:22:44.009Z,12.73
2017-11-09T04:25:12.921Z,11.13
2017-11-09T04:27:41.201Z,12.47
2017-11-09T04:30:09.486Z,11.20
2017-11-09T04:32:38.753Z,12.10
2017-11-09T04:35:07.812Z,12.45
2017-11-09T04:37:36.105Z,12.60
2017-11-09T04:40:04.385Z,12.00
2017-11-09T04:42:33.099Z,12.40
2017-11-09T04:45:02.136Z,11.87
2017-11-09T04:47:30.421Z,14.37
2017-11-09T04:49:58.718Z,12.20
2017-11-09T04:52:27.005Z,11.20
2017-11-09T04:54:55.293Z,12.40
2017-11-09T04:57:24.346Z,13.02
2017-11-09T04:59:52.626Z,12.40
2017-11-09T05:02:20.925Z,12.80
2017-11-09T05:04:50.065Z,13.02
2017-11-09T05:07:18.354Z,15.10
2017-11-09T05:09:46.641Z,13.37
2017-11-09T05:12:14.938Z,14.10
2017-11-09T05:14:43.247Z,13.47
2017-11-09T05:17:12.295Z,12.93
2017-11-09T05:19:40.587Z,14.30
2017-11-09T05:22:08.884Z,13.85
2017-11-09T05:24:37.185Z,12.47
2017-11-09T05:27:05.472Z,14.03
2017-11-09T05:29:33.766Z,12.27
2017-11-09T05:32:02.049Z,12.93
2017-11-09T05:34:30.347Z,13.60
2017-11-09T05:36:58.648Z,12.30
2017-11-09T05:39:27.744Z,13.62
2017-11-09T05:41:56.794Z,13.00
2017-11-09T05:44:25.085Z,13.50
2017-11-09T05:46:53.373Z,14.03
2017-11-09T05:49:21.663Z,14.93
2017-11-09T05:51:49.956Z,10.80
2017-11-09T05:54:19.875Z,13.00
2017-11-09T05:56:49.084Z,12.80
2017-11-09T05:59:17.369Z,12.90
2017-11-09T06:01:45.656Z,14.10
2017-11-09T06:04:13.950Z,12.85
2017-11-09T06:06:42.263Z,13.03
2017-11-09T06:09:12.026Z,13.70
2017-11-09T06:11:40.314Z,13.33
2017-11-09T06:14:09.159Z,13.20
2017-11-09T06:16:38.169Z,12.97
2017-11-09T06:19:06.454Z,13.23
2017-11-09T06:21:34.724Z,14.53
2017-11-09T06:24:03.005Z,12.83
2017-11-09T06:26:31.279Z,13.63
2017-11-09T06:28:59.565Z,13.70
2017-11-09T06:31:27.849Z,13.10
2017-11-09T06:33:56.121Z,15.10
2017-11-09T06:36:24.396Z,13.93
2017-11-09T06:38:52.680Z,17.30
2017-11-09T06:41:20.960Z,15.20
2017-11-09T06:43:49.243Z,16.47
2017-11-09T06:46:17.529Z,15.63
2017-11-09T06:48:46.582Z,16.93
2017-11-09T06:51:14.866Z,12.43
2017-11-09T06:53:43.169Z,15.40
2017-11-09T06:56:11.463Z,14.57
2017-11-09T06:58:40.515Z,13.10
2017-11-09T07:01:08.841Z,13.37
2017-11-09T07:03:37.140Z,13.83
2017-11-09T07:06:05.430Z,13.52
2017-11-09T07:08:33.721Z,12.83
2017-11-09T07:11:02.013Z,15.73
2017-11-09T07:13:30.285Z,12.23
2017-11-09T07:16:00.194Z,12.67
2017-11-09T07:18:28.472Z,12.55
2017-11-09T07:20:56.757Z,14.00
2017-11-09T07:23:25.157Z,13.20
2017-11-09T07:25:53.482Z,12.27
2017-11-09T07:28:21.771Z,12.53
2017-11-09T07:30:50.056Z,13.67
2017-11-09T07:33:18.398Z,12.30
2017-11-09T07:35:46.682Z,11.83
2017-11-09T07:38:14.965Z,14.17
2017-11-09T07:40:44.237Z,12.70
2017-11-09T07:43:12.521Z,10.87
2017-11-09T07:45:40.804Z,13.07
2017-11-09T07:48:09.093Z,16.00
2017-11-09T07:50:37.386Z,15.43
2017-11-09T07:53:05.665Z,14.07
2017-11-09T07:55:33.954Z,12.90
2017-11-09T07:58:02.247Z,13.90
2017-11-09T08:00:31.315Z,14.13
2017-11-09T08:02:59.599Z,13.00
2017-11-09T08:05:27.893Z,13.82
2017-11-09T08:07:56.189Z,14.63
2017-11-09T08:10:25.236Z,16.20
2017-11-09T08:12:53.508Z,14.30
2017-11-09T08:15:21.799Z,15.37
2017-11-09T08:17:50.103Z,13.60
2017-11-09T08:20:18.390Z,14.67
2017-11-09T08:22:46.680Z,14.87
2017-11-09T08:25:19.986Z,15.70
2017-11-09T08:27:50.646Z,16.20
2017-11-09T08:30:19.426Z,15.40
2017-11-09T08:32:51.864Z,16.00
2017-11-09T08:35:20.153Z,16.90
2017-11-09T08:37:48.435Z,17.30
2017-11-09T08:40:17.421Z,15.27
2017-11-09T08:42:45.719Z,16.60
2017-11-09T08:45:14.002Z,16.20
2017-11-09T08:47:42.287Z,15.82
2017-11-09T08:50:10.607Z,14.37
2017-11-09T08:52:38.982Z,14.07
2017-11-09T08:55:08.036Z,15.17
2017-11-09T08:57:37.224Z,14.02
2017-11-09T09:00:05.510Z,14.67
2017-11-09T09:02:33.789Z,14.93
2017-11-09T09:05:02.076Z,13.37
2017-11-09T09:07:30.349Z,16.05
2017-11-09T09:09:58.638Z,14.00
2017-11-09T09:12:27.703Z,12.30
2017-11-09T09:14:56.033Z,12.43
2017-11-09T09:17:25.102Z,12.63
2017-11-09T09:19:53.386Z,11.27
2017-11-09T09:25:27.587Z,14.10
2017-11-09T09:27:58.165Z,14.85
2017-11-09T09:30:29.397Z,13.40
2017-11-09T09:33:05.151Z,13.70
2017-11-09T09:35:42.837Z,11.55
2017-11-09T09:38:18.134Z,13.07
2017-11-09T09:40:47.073Z,14.27
2017-11-09T09:43:15.554Z,14.10
2017-11-09T09:45:43.853Z,12.23
2017-11-09T09:48:12.140Z,10.93
2017-11-09T09:50:40.432Z,11.73
2017-11-09T09:53:08.717Z,11.87
2017-11-09T09:55:37.029Z,10.35
2017-11-09T09:58:06.093Z,10.20
2017-11-09T10:00:34.385Z,10.50
2017-11-09T10:03:02.697Z,10.17
2017-11-09T10:05:30.993Z,10.07
2017-11-09T10:07:59.282Z,10.67
2017-11-09T10:10:27.566Z,10.87
2017-11-09T10:12:55.862Z,11.20
2017-11-09T10:15:24.170Z,10.90
2017-11-09T10:17:52.461Z,11.10
2017-11-09T10:20:20.761Z,11.07
2017-11-09T10:22:49.062Z,11.50
2017-11-09T10:25:17.365Z,10.40
2017-11-09T10:27:46.421Z,10.15
2017-11-09T10:30:14.706Z,14.70
2017-11-09T10:32:42.993Z,11.67
2017-11-09T10:35:12.060Z,12.20
2017-11-09T10:37:40.397Z,12.55
2017-11-09T10:40:08.687Z,13.07
2017-11-09T10:42:36.981Z,13.17
2017-11-09T10:45:05.286Z,12.80
2017-11-09T10:47:33.615Z,14.83
2017-11-09T10:50:02.698Z,14.30
2017-11-09T10:52:31.035Z,14.25
2017-11-09T10:54:59.337Z,13.83
2017-11-09T10:57:27.637Z,14.07
2017-11-09T10:59:55.954Z,14.43
2017-11-09T11:02:24.232Z,12.30
2017-11-09T11:04:52.521Z,13.40
2017-11-09T11:07:20.809Z,13.80
2017-11-09T11:09:49.122Z,11.85
2017-11-09T11:12:17.426Z,12.20
2017-11-09T11:14:45.740Z,11.47
2017-11-09T11:17:14.045Z,13.37
2017-11-09T11:19:42.578Z,12.88
2017-11-09T11:22:10.883Z,13.80
2017-11-09T11:24:39.194Z,13.10
2017-11-09T11:27:07.497Z,13.70
2017-11-09T11:29:35.825Z,11.67
2017-11-09T11:32:04.126Z,11.40
2017-11-09T11:34:32.422Z,12.53
2017-11-09T11:37:00.747Z,12.80
2017-11-09T11:39:29.049Z,12.37
2017-11-09T11:41:57.337Z,11.60
2017-11-09T11:44:25.649Z,11.73
2017-11-09T11:46:53.952Z,12.07
2017-11-09T11:49:22.742Z,11.63
2017-11-09T11:51:51.037Z,12.47
2017-11-09T11:54:20.581Z,12.97
2017-11-09T11:56:48.876Z,12.50
2017-11-09T11:59:17.177Z,12.70
2017-11-09T12:01:45.465Z,13.90
2017-11-09T12:04:14.526Z,13.33
2017-11-09T12:06:43.394Z,12.57
2017-11-09T12:09:11.712Z,13.07
2017-11-09T12:11:41.577Z,13.57
2017-11-09T12:14:09.879Z,14.50
2017-11-09T12:16:38.195Z,14.20
2017-11-09T12:19:07.278Z,14.00
2017-11-09T12:21:35.597Z,14.77
2017-11-09T12:24:03.923Z,14.40
2017-11-09T12:26:32.251Z,13.10
2017-11-09T12:29:02.073Z,12.37
2017-11-09T12:31:30.382Z,13.63
2017-11-09T12:33:58.697Z,14.53
2017-11-09T12:36:27.005Z,14.57
2017-11-09T12:38:55.406Z,14.10
2017-11-09T12:41:24.502Z,15.00
2017-11-09T12:43:53.607Z,13.88
2017-11-09T12:46:21.900Z,14.10
2017-11-09T12:48:50.195Z,13.30
2017-11-09T12:51:20.339Z,12.73
2017-11-09T12:53:48.647Z,14.02
2017-11-09T12:56:16.915Z,13.27
2017-11-09T12:58:45.195Z,17.10
2017-11-09T13:01:13.474Z,14.43
2017-11-09T13:03:41.845Z,14.73
2017-11-09T13:06:10.153Z,14.07
2017-11-09T13:08:39.249Z,12.77
2017-11-09T13:11:07.555Z,12.87
2017-11-09T13:13:35.858Z,14.23
2017-11-09T13:16:04.153Z,13.50
2017-11-09T13:18:32.451Z,14.87
2017-11-09T13:21:00.750Z,14.70
2017-11-09T13:23:29.062Z,14.80
2017-11-09T13:25:57.368Z,15.43
2017-11-09T13:28:25.685Z,13.70
2017-11-09T13:30:53.990Z,13.33
2017-11-09T13:33:22.279Z,14.50
2017-11-09T13:35:50.583Z,13.23
2017-11-09T13:38:19.845Z,13.02
2017-11-09T13:40:48.702Z,13.33
2017-11-09T13:43:17.001Z,13.25
2017-11-09T13:45:45.305Z,12.20
2017-11-09T13:48:13.593Z,13.87
2017-11-09T13:50:41.934Z,13.13
2017-11-09T13:53:10.246Z,14.03
2017-11-09T13:55:38.522Z,12.30
2017-11-09T13:58:06.811Z,15.80
2017-11-09T14:00:35.399Z,14.77
2017-11-09T14:03:03.950Z,12.70
2017-11-09T14:05:32.517Z,14.07
2017-11-09T14:08:01.029Z,15.10
2017-11-09T14:10:30.261Z,13.63
2017-11-09T14:12:59.379Z,12.60
2017-11-09T14:15:27.697Z,13.27
2017-11-09T14:17:56.160Z,15.43
2017-11-09T14:20:24.463Z,14.00
2017-11-09T14:22:52.763Z,15.00
2017-11-09T14:25:21.072Z,12.67
2017-11-09T14:27:49.365Z,12.97
2017-11-09T14:30:17.998Z,14.57
2017-11-09T14:32:47.298Z,13.90
2017-11-09T14:35:16.371Z,12.00
2017-11-09T14:37:45.228Z,14.67
2017-11-09T14:40:13.533Z,14.23
2017-11-09T14:42:41.834Z,13.95
2017-11-09T14:45:10.141Z,13.73
2017-11-09T14:47:38.442Z,13.63
2017-11-09T14:50:06.754Z,13.97
2017-11-09T14:52:35.036Z,15.00
2017-11-09T14:55:03.973Z,14.33
2017-11-09T14:57:32.325Z,13.20
2017-11-09T15:00:01.446Z,12.85
2017-11-09T15:02:29.733Z,13.00
2017-11-09T15:04:58.059Z,13.50
2017-11-09T15:07:27.118Z,12.97
2017-11-09T15:09:55.417Z,13.23
2017-11-09T15:12:23.710Z,13.57
2017-11-09T15:14:52.001Z,12.20
2017-11-09T15:17:20.289Z,13.00
2017-11-09T15:19:48.574Z,11.00
2017-11-09T15:22:16.862Z,11.00
2017-11-09T15:24:47.076Z,12.63
2017-11-09T15:27:15.366Z,10.70
2017-11-09T15:29:43.662Z,11.73
2017-11-09T15:32:12.556Z,12.40
2017-11-09T15:34:40.850Z,11.85
2017-11-09T15:37:09.155Z,10.33
2017-11-09T15:39:37.449Z,10.73
2017-11-09T15:42:05.885Z,11.32
2017-11-09T15:44:35.006Z,10.17
2017-11-09T15:47:03.341Z,11.37
2017-11-09T15:49:31.625Z,11.43
2017-11-09T15:51:59.908Z,12.07
2017-11-09T15:54:28.197Z,11.80
2017-11-09T15:56:56.502Z,10.57
2017-11-09T15:59:24.808Z,11.23
2017-11-09T16:01:53.093Z,12.15
2017-11-09T16:04:21.373Z,12.37
2017-11-09T16:06:49.661Z,12.77
2017-11-09T16:09:18.720Z,12.27
2017-11-09T16:11:47.011Z,12.27
2017-11-09T16:14:15.305Z,11.80
2017-11-09T16:16:43.598Z,11.23
2017-11-09T16:19:15.453Z,10.45
2017-11-09T16:21:43.754Z,11.00
2017-11-09T16:24:12.039Z,11.83
2017-11-09T16:26:40.734Z,11.43
2017-11-09T16:29:09.024Z,13.70
2017-11-09T16:31:38.234Z,12.80
2017-11-09T16:34:06.545Z,13.80
2017-11-09T16:36:34.845Z,13.05
2017-11-09T16:39:03.127Z,11.83
2017-11-09T16:41:31.410Z,13.10
2017-11-09T16:43:59.734Z,13.65
2017-11-09T16:46:28.016Z,13.60
2017-11-09T16:48:57.073Z,12.40
2017-11-09T16:51:25.375Z,13.77
2017-11-09T16:53:54.459Z,11.90
2017-11-09T16:56:25.529Z,13.30
2017-11-09T16:58:54.577Z,12.90
2017-11-09T17:01:22.868Z,11.98
2017-11-09T17:03:51.170Z,11.90
2017-11-09T17:06:19.960Z,14.60
2017-11-09T17:08:48.252Z,13.50
2017-11-09T17:11:19.081Z,13.03
2017-11-09T17:13:47.370Z,14.00
2017-11-09T17:16:16.422Z,10.53
2017-11-09T17:18:44.726Z,12.07
2017-11-09T17:21:13.018Z,13.07
2017-11-09T17:23:41.321Z,12.60
2017-11-09T17:26:09.610Z,12.90
2017-11-09T17:28:37.914Z,12.30
2017-11-09T17:31:06.203Z,13.50
2017-11-09T17:33:34.493Z,12.43
2017-11-09T17:36:02.777Z,13.18
2017-11-09T17:38:31.061Z,12.93
2017-11-09T17:40:59.341Z,12.83
2017-11-09T17:43:27.640Z,12.37
2017-11-09T17:45:55.977Z,12.23
2017-11-09T17:48:24.269Z,11.90
2017-11-09T17:50:52.561Z,12.97
2017-11-09T17:53:22.777Z,11.93
2017-11-09T17:55:51.041Z,12.10
2017-11-09T17:58:19.304Z,12.23
2017-11-09T18:00:47.613Z,12.03
2017-11-09T18:03:15.913Z,12.60
2017-11-09T18:05:44.213Z,11.90
2017-11-09T18:08:12.505Z,12.80
2017-11-09T18:10:41.558Z,14.77
2017-11-09T18:13:09.863Z,12.20
2017-11-09T18:15:38.793Z,12.67
2017-11-09T18:18:07.101Z,12.83
2017-11-09T18:20:35.393Z,12.13
2017-11-09T18:23:03.706Z,13.40
2017-11-09T18:25:32.816Z,13.50
2017-11-09T18:28:01.393Z,12.20
2017-11-09T18:30:29.808Z,13.30
2017-11-09T18:32:58.419Z,13.20
2017-11-09T18:35:27.497Z,13.70
2017-11-09T18:37:57.054Z,14.90
2017-11-09T18:40:25.350Z,16.50
2017-11-09T18:42:53.637Z,15.10
2017-11-09T18:45:21.925Z,16.75
2017-11-09T18:47:50.201Z,15.10
2017-11-09T18:50:19.424Z,14.67
2017-11-09T18:52:48.535Z,12.70
2017-11-09T18:55:18.870Z,14.13
2017-11-09T18:57:47.788Z,14.33
2017-11-09T19:00:16.247Z,13.88
2017-11-09T19:02:44.788Z,14.87
2017-11-09T19:05:14.238Z,13.50
2017-11-09T19:07:44.243Z,16.77
2017-11-09T19:10:13.165Z,19.67
2017-11-09T19:12:42.026Z,21.27
2017-11-09T19:15:12.219Z,17.73
2017-11-09T19:17:41.945Z,17.50
2017-11-09T19:20:10.885Z,16.58
2017-11-09T19:22:40.225Z,15.03
2017-11-09T19:25:09.887Z,14.43
2017-11-09T19:27:39.484Z,13.60
2017-11-09T19:30:08.691Z,19.63
2017-11-09T19:32:44.152Z,12.80
2017-11-09T19:35:14.184Z,14.27
2017-11-09T19:37:44.022Z,12.93
2017-11-09T19:40:14.085Z,13.57
2017-11-09T19:42:43.994Z,13.80
2017-11-09T19:45:14.513Z,11.17
2017-11-09T19:47:44.910Z,13.35
2017-11-09T19:50:14.969Z,14.02
2017-11-09T19:52:45.376Z,20.00
2017-11-09T19:55:15.457Z,14.47
2017-11-09T19:57:45.260Z,14.00
2017-11-09T20:00:15.192Z,15.00
2017-11-09T20:02:45.038Z,16.63
2017-11-09T20:05:15.704Z,13.70
2017-11-09T20:07:45.654Z,14.27
2017-11-09T20:10:15.460Z,14.93
2017-11-09T20:12:45.322Z,12.75
2017-11-09T20:15:15.310Z,14.40
2017-11-09T20:17:45.190Z,13.90
2017-11-09T20:20:15.185Z,15.80
2017-11-09T20:22:45.000Z,14.30
2017-11-09T20:25:14.836Z,15.37
2017-11-09T20:27:44.719Z,13.00
2017-11-09T20:30:14.542Z,14.35
2017-11-09T20:32:44.434Z,15.68
2017-11-09T20:35:14.358Z,14.57
2017-11-09T20:37:44.180Z,14.37
2017-11-09T20:40:14.279Z,12.68
2017-11-09T20:42:44.162Z,14.93
2017-11-09T20:45:14.158Z,13.57
2017-11-09T20:47:43.968Z,13.50
2017-11-09T20:50:16.739Z,14.70
2017-11-09T20:52:46.523Z,13.50
2017-11-09T20:55:16.409Z,12.73
2017-11-09T20:57:46.959Z,12.40
2017-11-09T21:00:17.668Z,13.32
2017-11-09T21:02:47.396Z,13.27
2017-11-09T21:05:17.916Z,12.67
2017-11-09T21:07:48.452Z,13.60
2017-11-09T21:10:18.274Z,13.27
2017-11-09T21:12:48.315Z,13.57
2017-11-09T21:15:18.078Z,13.60
2017-11-09T21:17:47.723Z,12.73
2017-11-09T21:20:17.394Z,13.80
2017-11-09T21:22:47.156Z,12.47
2017-11-09T21:25:16.706Z,13.53
2017-11-09T21:27:46.262Z,13.37
2017-11-09T21:30:15.841Z,12.32
2017-11-09T21:32:46.288Z,14.63
2017-11-09T21:35:15.667Z,14.27
2017-11-09T21:37:45.666Z,12.73
2017-11-09T21:40:14.326Z,13.77
2017-11-09T21:42:42.701Z,13.47
2017-11-09T21:45:11.073Z,13.60
2017-11-09T21:47:39.761Z,12.43
2017-11-09T21:50:10.404Z,12.50
2017-11-09T21:52:38.742Z,13.00
2017-11-09T21:55:07.035Z,13.23
2017-11-09T21:57:35.320Z,13.90
2017-11-09T22:00:04.973Z,14.37
2017-11-09T22:02:33.265Z,13.23
2017-11-09T22:05:01.569Z,14.90
2017-11-09T22:07:29.857Z,14.43
2017-11-09T22:09:58.722Z,14.43
2017-11-09T22:12:27.037Z,13.18
2017-11-09T22:14:55.338Z,13.00
2017-11-09T22:17:24.389Z,13.77
2017-11-09T22:19:52.677Z,14.00
2017-11-09T22:22:20.975Z,13.62
2017-11-09T22:24:49.261Z,13.00
2017-11-09T22:27:17.567Z,12.63
2017-11-09T22:29:45.842Z,13.43
2017-11-09T22:32:14.116Z,17.12
2017-11-09T22:34:42.402Z,12.27
2017-11-09T22:37:10.687Z,12.80
2017-11-09T22:39:38.970Z,13.55
2017-11-09T22:42:07.257Z,10.70
2017-11-09T22:44:35.541Z,12.20
2017-11-09T22:47:03.847Z,11.95
2017-11-09T22:49:32.133Z,13.13
2017-11-09T22:52:01.526Z,12.30
2017-11-09T22:54:29.866Z,12.33
2017-11-09T22:56:58.161Z,13.20
2017-11-09T22:59:26.444Z,13.40
2017-11-09T23:01:55.488Z,12.50
2017-11-09T23:04:23.790Z,13.25
2017-11-09T23:06:52.070Z,14.43
2017-11-09T23:09:20.340Z,13.70
2017-11-09T23:11:48.629Z,13.53
2017-11-09T23:14:16.917Z,13.37
2017-11-09T23:16:46.357Z,15.30
2017-11-09T23:19:14.638Z,13.07
2017-11-09T23:21:42.925Z,14.93
2017-11-09T23:24:11.208Z,13.00
2017-11-09T23:26:40.712Z,14.37
2017-11-09T23:29:09.030Z,13.90
2017-11-09T23:31:37.313Z,13.30
2017-11-09T23:34:06.829Z,15.67
2017-11-09T23:36:35.896Z,14.67
2017-11-09T23:39:04.188Z,13.33
2017-11-09T23:41:33.270Z,14.80
2017-11-09T23:44:01.557Z,14.03
2017-11-09T23:46:30.621Z,13.50
2017-11-09T23:48:58.904Z,13.67
2017-11-09T23:51:27.224Z,11.90
2017-11-09T23:53:55.511Z,13.67
2017-11-09T23:56:23.802Z,13.32
2017-11-09T23:58:52.092Z,13.30
